createdAt,value
2018-06-15T00:00:11.736Z,30.77
2018-06-15T00:02:16.302Z,25.70
2018-06-15T00:04:20.309Z,30.00
2018-06-15T00:06:24.308Z,25.93
2018-06-15T00:08:28.967Z,24.47
2018-06-15T00:10:33.257Z,26.47
2018-06-15T00:12:37.250Z,22.17
2018-06-15T00:14:41.506Z,22.37
2018-06-15T00:16:46.043Z,22.13
2018-06-15T00:18:50.691Z,19.70
2018-06-15T00:20:54.991Z,24.17
2018-06-15T00:22:59.284Z,21.97
2018-06-15T00:25:03.845Z,21.83
2018-06-15T00:27:07.842Z,19.87
2018-06-15T00:29:12.120Z,24.80
2018-06-15T00:31:16.401Z,23.60
2018-06-15T00:33:21.001Z,20.27
2018-06-15T00:35:25.273Z,21.83
2018-06-15T00:37:29.586Z,20.00
2018-06-15T00:39:33.905Z,22.43
2018-06-15T00:41:38.365Z,16.90
2018-06-15T00:43:42.641Z,20.73
2018-06-15T00:45:46.950Z,24.90
2018-06-15T00:47:51.285Z,19.60
2018-06-15T00:49:55.375Z,17.43
2018-06-15T00:51:59.521Z,19.90
2018-06-15T00:54:04.011Z,24.07
2018-06-15T00:56:08.527Z,17.70
2018-06-15T00:58:12.910Z,22.23
2018-06-15T01:00:17.706Z,13.47
2018-06-15T01:02:22.057Z,24.97
2018-06-15T01:04:26.353Z,22.63
2018-06-15T01:06:30.649Z,26.80
2018-06-15T01:08:34.925Z,21.87
2018-06-15T01:10:39.208Z,23.43
2018-06-15T01:12:43.723Z,23.97
2018-06-15T01:14:48.002Z,36.57
2018-06-15T01:16:52.303Z,22.70
2018-06-15T01:18:56.549Z,19.30
2018-06-15T01:21:00.814Z,19.40
2018-06-15T01:23:04.830Z,26.50
2018-06-15T01:25:08.850Z,29.70
2018-06-15T01:27:13.055Z,25.90
2018-06-15T01:29:17.482Z,26.70
2018-06-15T01:31:21.768Z,28.33
2018-06-15T01:33:26.065Z,25.00
2018-06-15T01:35:30.329Z,30.90
2018-06-15T01:37:34.926Z,27.43
2018-06-15T01:39:39.230Z,24.47
2018-06-15T01:41:43.605Z,30.00
2018-06-15T01:43:47.586Z,30.47
2018-06-15T01:45:51.957Z,27.47
2018-06-15T01:47:56.198Z,23.30
2018-06-15T01:50:00.496Z,29.47
2018-06-15T01:52:04.526Z,27.70
2018-06-15T01:54:08.810Z,33.23
2018-06-15T01:56:13.062Z,21.27
2018-06-15T01:58:17.893Z,29.43
2018-06-15T02:00:22.493Z,28.87
2018-06-15T02:02:26.754Z,31.20
2018-06-15T02:04:31.071Z,29.10
2018-06-15T02:06:35.049Z,37.83
2018-06-15T02:08:39.330Z,28.03
2018-06-15T02:10:43.610Z,35.17
2018-06-15T02:12:47.658Z,31.03
2018-06-15T02:14:51.966Z,27.30
2018-06-15T02:16:56.278Z,30.50
2018-06-15T02:19:00.859Z,32.97
2018-06-15T02:21:05.307Z,27.90
2018-06-15T02:23:09.349Z,22.97
2018-06-15T02:25:13.214Z,31.67
2018-06-15T02:27:17.494Z,30.27
2018-06-15T02:29:21.795Z,26.47
2018-06-15T02:31:26.046Z,34.47
2018-06-15T02:33:30.370Z,31.67
2018-06-15T02:35:34.991Z,36.53
2018-06-15T02:37:39.349Z,28.87
2018-06-15T02:39:44.006Z,32.17
2018-06-15T02:41:48.486Z,36.90
2018-06-15T02:43:52.751Z,29.13
2018-06-15T02:45:57.222Z,29.70
2018-06-15T02:48:01.566Z,39.80
2018-06-15T02:50:05.863Z,37.63
2018-06-15T02:52:10.138Z,26.87
2018-06-15T02:54:14.650Z,33.47
2018-06-15T02:56:18.922Z,35.57
2018-06-15T02:58:23.179Z,28.53
2018-06-15T03:00:27.462Z,29.50
2018-06-15T03:02:32.174Z,26.00
2018-06-15T03:04:36.490Z,29.17
2018-06-15T03:06:40.767Z,32.63
2018-06-15T03:08:45.027Z,24.93
2018-06-15T03:10:49.384Z,32.83
2018-06-15T03:12:53.654Z,30.27
2018-06-15T03:14:57.983Z,30.07
2018-06-15T03:17:02.279Z,30.80
2018-06-15T03:19:06.566Z,32.60
2018-06-15T03:21:10.572Z,41.60
2018-06-15T03:23:14.766Z,34.43
2018-06-15T03:25:19.067Z,29.33
2018-06-15T03:27:23.375Z,34.00
2018-06-15T03:29:27.727Z,35.57
2018-06-15T03:31:32.015Z,28.73
2018-06-15T03:33:36.279Z,30.47
2018-06-15T03:35:40.550Z,26.03
2018-06-15T03:37:45.211Z,35.10
2018-06-15T03:39:49.820Z,31.83
2018-06-15T03:41:54.090Z,43.13
2018-06-15T03:43:58.436Z,28.37
2018-06-15T03:46:02.763Z,28.63
2018-06-15T03:48:07.022Z,27.13
2018-06-15T03:50:12.239Z,34.83
2018-06-15T03:52:16.514Z,34.60
2018-06-15T03:54:20.799Z,37.67
2018-06-15T03:56:25.099Z,32.67
2018-06-15T03:58:29.382Z,28.07
2018-06-15T04:00:33.685Z,37.27
2018-06-15T04:02:37.965Z,36.60
2018-06-15T04:04:42.210Z,37.40
2018-06-15T04:06:46.514Z,37.80
2018-06-15T04:08:51.154Z,31.13
2018-06-15T04:10:55.409Z,29.70
2018-06-15T04:12:59.814Z,35.23
2018-06-15T04:15:04.274Z,33.20
2018-06-15T04:17:08.282Z,31.90
2018-06-15T04:19:12.544Z,35.00
2018-06-15T04:21:16.863Z,35.33
2018-06-15T04:23:21.100Z,40.10
2018-06-15T04:25:25.087Z,37.83
2018-06-15T04:27:29.898Z,32.67
2018-06-15T04:29:34.143Z,31.37
2018-06-15T04:31:38.515Z,38.53
2018-06-15T04:33:42.981Z,40.20
2018-06-15T04:35:47.413Z,41.03
2018-06-15T04:37:51.982Z,30.23
2018-06-15T04:39:56.587Z,23.53
2018-06-15T04:42:00.846Z,32.93
2018-06-15T04:44:05.110Z,29.43
2018-06-15T04:46:09.427Z,32.83
2018-06-15T04:48:13.711Z,30.60
2018-06-15T04:50:17.996Z,28.67
2018-06-15T04:52:22.311Z,31.57
2018-06-15T04:54:26.663Z,34.57
2018-06-15T04:56:30.967Z,26.50
2018-06-15T04:58:35.294Z,28.37
2018-06-15T05:00:39.622Z,24.07
2018-06-15T05:02:43.917Z,26.03
2018-06-15T05:04:48.347Z,24.27
2018-06-15T05:06:52.590Z,28.73
2018-06-15T05:08:57.221Z,34.80
2018-06-15T05:11:01.543Z,23.37
2018-06-15T05:13:06.207Z,31.13
2018-06-15T05:15:10.607Z,18.57
2018-06-15T05:17:14.677Z,27.73
2018-06-15T05:19:19.323Z,26.83
2018-06-15T05:21:23.914Z,36.97
2018-06-15T05:23:28.388Z,19.37
2018-06-15T05:25:32.690Z,29.03
2018-06-15T05:27:36.678Z,29.23
2018-06-15T05:29:41.320Z,37.30
2018-06-15T05:31:45.554Z,31.60
2018-06-15T05:33:49.805Z,24.67
2018-06-15T05:35:54.410Z,21.87
2018-06-15T05:37:58.881Z,27.87
2018-06-15T05:40:03.466Z,29.10
2018-06-15T05:42:07.746Z,34.37
2018-06-15T05:44:12.024Z,24.23
2018-06-15T05:46:16.378Z,21.40
2018-06-15T05:48:23.943Z,18.07
2018-06-15T05:50:29.107Z,19.83
2018-06-15T05:52:33.474Z,29.33
2018-06-15T05:54:37.821Z,17.40
2018-06-15T05:56:42.520Z,18.00
2018-06-15T05:58:46.833Z,22.93
2018-06-15T06:00:51.098Z,29.57
2018-06-15T06:02:55.531Z,16.97
2018-06-15T06:04:59.808Z,28.57
2018-06-15T06:07:04.070Z,17.63
2018-06-15T06:09:09.706Z,20.43
2018-06-15T06:11:13.952Z,16.07
2018-06-15T06:13:18.550Z,14.93
2018-06-15T06:15:22.835Z,17.43
2018-06-15T06:17:27.070Z,28.17
2018-06-15T06:19:31.127Z,4.63
2018-06-15T06:21:35.113Z,15.53
2018-06-15T06:23:39.358Z,8.63
2018-06-15T06:25:43.983Z,10.73
2018-06-15T06:27:48.148Z,10.47
2018-06-15T06:29:52.321Z,15.53
2018-06-15T06:31:56.922Z,24.67
2018-06-15T06:34:00.895Z,11.40
2018-06-15T06:36:05.158Z,18.83
2018-06-15T06:38:09.198Z,17.90
2018-06-15T06:40:13.191Z,17.13
2018-06-15T06:42:17.194Z,17.87
2018-06-15T06:44:21.510Z,14.40
2018-06-15T06:46:25.816Z,8.37
2018-06-15T06:48:30.113Z,7.73
2018-06-15T06:50:34.452Z,8.67
2018-06-15T06:52:38.830Z,11.20
2018-06-15T06:54:43.107Z,9.20
2018-06-15T06:56:47.390Z,15.50
2018-06-15T06:58:51.384Z,8.07
2018-06-15T07:00:55.663Z,13.53
2018-06-15T07:03:00.288Z,14.83
2018-06-15T07:05:04.902Z,13.80
2018-06-15T07:07:09.162Z,9.00
2018-06-15T07:09:13.410Z,7.70
2018-06-15T07:11:17.722Z,15.73
2018-06-15T07:13:21.979Z,14.93
2018-06-15T07:15:26.250Z,13.00
2018-06-15T07:17:31.023Z,9.97
2018-06-15T07:19:35.292Z,10.03
2018-06-15T07:21:39.662Z,11.40
2018-06-15T07:23:44.003Z,13.13
2018-06-15T07:25:48.418Z,12.77
2018-06-15T07:27:52.683Z,10.83
2018-06-15T07:29:57.303Z,8.67
2018-06-15T07:32:01.607Z,11.53
2018-06-15T07:34:06.095Z,11.00
2018-06-15T07:36:10.320Z,15.60
2018-06-15T07:38:14.817Z,7.47
2018-06-15T07:40:19.082Z,12.07
2018-06-15T07:42:23.111Z,10.03
2018-06-15T07:44:27.013Z,8.87
2018-06-15T07:46:30.978Z,13.27
2018-06-15T07:48:35.146Z,9.40
2018-06-15T07:50:39.546Z,13.20
2018-06-15T07:52:43.887Z,10.53
2018-06-15T07:54:48.210Z,20.53
2018-06-15T07:56:52.463Z,20.50
2018-06-15T07:58:56.547Z,12.27
2018-06-15T08:01:00.666Z,10.60
2018-06-15T08:03:04.998Z,13.40
2018-06-15T08:05:09.309Z,6.80
2018-06-15T08:07:13.480Z,4.47
2018-06-15T08:09:18.075Z,10.70
2018-06-15T08:11:22.330Z,5.80
2018-06-15T08:13:26.582Z,3.97
2018-06-15T08:15:30.859Z,7.73
2018-06-15T08:17:35.280Z,8.93
2018-06-15T08:19:39.542Z,8.47
2018-06-15T08:21:43.811Z,12.37
2018-06-15T08:23:48.704Z,8.13
2018-06-15T08:25:53.266Z,8.23
2018-06-15T08:27:57.547Z,4.37
2018-06-15T08:30:01.859Z,10.47
2018-06-15T08:32:06.450Z,9.60
2018-06-15T08:34:10.871Z,4.47
2018-06-15T08:36:15.169Z,10.20
2018-06-15T08:38:19.202Z,6.20
2018-06-15T08:40:23.360Z,6.40
2018-06-15T08:42:27.624Z,7.50
2018-06-15T08:44:31.906Z,7.17
2018-06-15T08:46:36.437Z,8.67
2018-06-15T08:48:40.500Z,5.87
2018-06-15T08:50:44.883Z,6.80
2018-06-15T08:52:49.170Z,7.10
2018-06-15T08:54:53.602Z,5.53
2018-06-15T08:56:57.874Z,10.47
2018-06-15T08:59:02.142Z,5.93
2018-06-15T09:01:06.418Z,20.60
2018-06-15T09:03:10.695Z,5.07
2018-06-15T09:05:15.093Z,15.10
2018-06-15T09:07:19.370Z,9.30
2018-06-15T09:09:23.616Z,10.53
2018-06-15T09:11:27.870Z,9.87
2018-06-15T09:13:32.189Z,10.53
2018-06-15T09:15:36.202Z,11.20
2018-06-15T09:17:40.356Z,9.73
2018-06-15T09:19:44.624Z,3.80
2018-06-15T09:21:48.895Z,7.90
2018-06-15T09:23:53.308Z,11.27
2018-06-15T09:25:57.570Z,10.43
2018-06-15T09:28:01.838Z,5.70
2018-06-15T09:30:06.079Z,11.23
2018-06-15T09:32:10.098Z,5.73
2018-06-15T09:34:14.236Z,8.13
2018-06-15T09:36:18.510Z,14.77
2018-06-15T09:38:22.575Z,6.57
2018-06-15T09:40:27.142Z,12.53
2018-06-15T09:42:31.498Z,7.97
2018-06-15T09:44:35.643Z,6.13
2018-06-15T09:46:39.996Z,10.70
2018-06-15T09:48:44.839Z,6.90
2018-06-15T09:50:49.036Z,11.13
2018-06-15T09:52:53.254Z,10.87
2018-06-15T09:54:57.698Z,13.90
2018-06-15T09:57:01.954Z,3.87
2018-06-15T09:59:06.194Z,5.90
2018-06-15T10:01:11.089Z,11.03
2018-06-15T10:03:15.253Z,8.97
2018-06-15T10:05:19.515Z,10.60
2018-06-15T10:07:23.819Z,6.03
2018-06-15T10:09:28.094Z,7.20
2018-06-15T10:11:32.328Z,10.97
2018-06-15T10:13:36.578Z,5.70
2018-06-15T10:15:40.814Z,6.50
2018-06-15T10:17:45.099Z,11.27
2018-06-15T10:19:49.346Z,4.40
2018-06-15T10:21:53.607Z,4.50
2018-06-15T10:23:57.986Z,10.23
2018-06-15T10:26:02.250Z,7.40
2018-06-15T10:28:06.495Z,8.83
2018-06-15T10:30:10.481Z,7.03
2018-06-15T10:32:14.718Z,6.63
2018-06-15T10:34:18.975Z,10.30
2018-06-15T10:36:23.307Z,8.73
2018-06-15T10:38:27.609Z,10.00
2018-06-15T10:40:32.133Z,8.27
2018-06-15T10:42:36.407Z,8.00
2018-06-15T10:44:40.710Z,13.73
2018-06-15T10:46:44.966Z,9.37
2018-06-15T10:48:49.229Z,5.03
2018-06-15T10:50:53.474Z,6.03
2018-06-15T10:52:58.182Z,9.03
2018-06-15T10:55:02.451Z,13.30
2018-06-15T10:57:06.730Z,10.87
2018-06-15T10:59:11.015Z,6.30
2018-06-15T11:01:15.271Z,15.10
2018-06-15T11:03:19.594Z,4.47
2018-06-15T11:05:24.112Z,7.43
2018-06-15T11:07:28.380Z,12.30
2018-06-15T11:09:32.975Z,14.60
2018-06-15T11:11:37.442Z,6.47
2018-06-15T11:13:41.596Z,9.17
2018-06-15T11:15:45.854Z,6.80
2018-06-15T11:17:50.264Z,7.83
2018-06-15T11:19:54.878Z,5.30
2018-06-15T11:21:59.303Z,9.20
2018-06-15T11:24:03.562Z,8.43
2018-06-15T11:26:07.848Z,9.37
2018-06-15T11:28:12.114Z,15.07
2018-06-15T11:30:16.370Z,4.87
2018-06-15T11:32:20.643Z,7.57
2018-06-15T11:34:24.983Z,11.63
2018-06-15T11:36:29.269Z,10.03
2018-06-15T11:38:33.547Z,5.93
2018-06-15T11:40:38.441Z,7.50
2018-06-15T11:42:42.671Z,5.73
2018-06-15T11:44:46.914Z,12.47
2018-06-15T11:46:51.159Z,9.47
2018-06-15T11:48:55.434Z,8.63
2018-06-15T11:50:59.686Z,9.27
2018-06-15T11:53:04.317Z,7.93
2018-06-15T11:55:08.555Z,8.23
2018-06-15T11:57:12.837Z,7.97
2018-06-15T11:59:17.155Z,8.93
2018-06-15T12:01:21.313Z,8.70
2018-06-15T12:03:25.453Z,7.33
2018-06-15T12:05:29.703Z,11.00
2018-06-15T12:07:33.964Z,6.97
2018-06-15T12:09:37.978Z,14.40
2018-06-15T12:11:42.112Z,9.30
2018-06-15T12:13:46.462Z,12.53
2018-06-15T12:15:50.771Z,7.77
2018-06-15T12:17:55.015Z,7.27
2018-06-15T12:19:59.336Z,6.47
2018-06-15T12:22:03.370Z,7.30
2018-06-15T12:24:07.499Z,8.40
2018-06-15T12:26:11.770Z,12.63
2018-06-15T12:28:16.111Z,13.90
2018-06-15T12:30:20.312Z,6.67
2018-06-15T12:32:24.466Z,9.03
2018-06-15T12:34:28.988Z,6.30
2018-06-15T12:36:33.244Z,5.90
2018-06-15T12:38:37.298Z,9.37
2018-06-15T12:40:41.427Z,3.70
2018-06-15T12:42:45.807Z,11.50
2018-06-15T12:44:50.474Z,8.90
2018-06-15T12:46:54.754Z,10.53
2018-06-15T12:48:59.378Z,4.77
2018-06-15T12:51:04.018Z,9.70
2018-06-15T12:53:08.294Z,12.43
2018-06-15T12:55:13.226Z,13.97
2018-06-15T12:57:17.525Z,8.27
2018-06-15T12:59:21.827Z,5.57
2018-06-15T13:01:26.123Z,4.00
2018-06-15T13:03:30.462Z,10.93
2018-06-15T13:05:34.759Z,19.03
2018-06-15T13:07:39.178Z,9.20
2018-06-15T13:09:43.427Z,8.00
2018-06-15T13:11:47.870Z,4.40
2018-06-15T13:13:52.562Z,8.87
2018-06-15T13:15:56.880Z,9.63
2018-06-15T13:18:01.156Z,7.30
2018-06-15T13:20:05.736Z,9.40
2018-06-15T13:22:10.185Z,7.73
2018-06-15T13:24:14.205Z,6.00
2018-06-15T13:26:18.340Z,11.77
2018-06-15T13:28:22.602Z,7.27
2018-06-15T13:30:26.882Z,4.80
2018-06-15T13:32:31.159Z,6.20
2018-06-15T13:34:35.747Z,11.70
2018-06-15T13:36:40.020Z,9.30
2018-06-15T13:38:44.272Z,6.27
2018-06-15T13:40:48.541Z,8.50
2018-06-15T13:42:52.798Z,8.00
2018-06-15T13:44:57.059Z,12.50
2018-06-15T13:47:01.341Z,6.90
2018-06-15T13:49:05.498Z,6.90
2018-06-15T13:51:09.630Z,5.33
2018-06-15T13:53:14.275Z,6.30
2018-06-15T13:55:18.720Z,5.17
2018-06-15T13:57:22.987Z,4.80
2018-06-15T13:59:27.306Z,8.27
2018-06-15T14:01:31.883Z,5.20
2018-06-15T14:03:35.965Z,9.37
2018-06-15T14:05:40.134Z,7.40
2018-06-15T14:07:44.440Z,10.67
2018-06-15T14:09:48.699Z,6.30
2018-06-15T14:11:52.971Z,14.90
2018-06-15T14:13:57.260Z,6.83
2018-06-15T14:16:01.507Z,11.80
2018-06-15T14:18:05.787Z,6.30
2018-06-15T14:20:10.128Z,6.27
2018-06-15T14:22:14.407Z,5.23
2018-06-15T14:24:18.641Z,6.20
2018-06-15T14:26:22.924Z,4.13
2018-06-15T14:28:27.229Z,9.23
2018-06-15T14:30:31.727Z,3.70
2018-06-15T14:32:36.029Z,7.83
2018-06-15T14:34:40.277Z,2.90
2018-06-15T14:36:44.769Z,7.07
2018-06-15T14:38:49.055Z,5.10
2018-06-15T14:40:53.439Z,3.90
2018-06-15T14:42:57.698Z,6.87
2018-06-15T14:45:02.017Z,3.53
2018-06-15T14:47:06.541Z,9.20
2018-06-15T14:49:10.750Z,4.50
2018-06-15T14:51:15.279Z,8.73
2018-06-15T14:53:19.633Z,9.60
2018-06-15T14:55:23.767Z,5.20
2018-06-15T14:57:28.019Z,6.70
2018-06-15T14:59:32.062Z,5.83
2018-06-15T15:01:36.535Z,6.40
2018-06-15T15:03:41.476Z,5.50
2018-06-15T15:05:46.524Z,9.13
2018-06-15T15:07:50.850Z,3.30
2018-06-15T15:09:55.106Z,8.67
2018-06-15T15:11:59.123Z,4.20
2018-06-15T15:14:03.488Z,12.50
2018-06-15T15:16:07.826Z,6.00
2018-06-15T15:18:12.670Z,4.30
2018-06-15T15:20:17.454Z,5.43
2018-06-15T15:22:21.726Z,4.27
2018-06-15T15:24:25.750Z,4.63
2018-06-15T15:26:29.900Z,5.57
2018-06-15T15:28:34.489Z,8.23
2018-06-15T15:30:38.888Z,6.50
2018-06-15T15:32:42.889Z,11.70
2018-06-15T15:34:47.099Z,5.80
2018-06-15T15:36:51.462Z,5.30
2018-06-15T15:38:55.744Z,5.47
2018-06-15T15:40:59.998Z,6.67
2018-06-15T15:43:04.870Z,5.67
2018-06-15T15:45:09.186Z,5.23
2018-06-15T15:47:13.471Z,10.50
2018-06-15T15:49:17.854Z,5.60
2018-06-15T15:51:22.143Z,4.80
2018-06-15T15:53:26.417Z,8.60
2018-06-15T15:55:30.714Z,6.57
2018-06-15T15:57:35.000Z,8.33
2018-06-15T15:59:39.799Z,8.83
2018-06-15T16:01:44.177Z,5.97
2018-06-15T16:03:48.435Z,7.00
2018-06-15T16:05:53.162Z,6.10
2018-06-15T16:07:57.628Z,5.27
2018-06-15T16:10:01.959Z,3.53
2018-06-15T16:12:06.278Z,6.33
2018-06-15T16:14:11.921Z,5.93
2018-06-15T16:16:16.193Z,6.30
2018-06-15T16:18:20.342Z,6.83
2018-06-15T16:20:24.382Z,5.10
2018-06-15T16:22:28.700Z,6.20
2018-06-15T16:24:33.374Z,7.13
2018-06-15T16:26:37.995Z,7.47
2018-06-15T16:28:42.245Z,4.40
2018-06-15T16:30:46.676Z,5.27
2018-06-15T16:32:51.105Z,4.97
2018-06-15T16:34:55.366Z,4.33
2018-06-15T16:36:59.420Z,3.33
2018-06-15T16:39:04.454Z,12.37
2018-06-15T16:41:09.283Z,7.97
2018-06-15T16:43:13.730Z,3.10
2018-06-15T16:45:17.966Z,6.40
2018-06-15T16:47:22.221Z,4.50
2018-06-15T16:49:26.858Z,10.67
2018-06-15T16:51:31.194Z,4.80
2018-06-15T16:53:35.483Z,7.60
2018-06-15T16:55:40.275Z,4.77
2018-06-15T16:57:44.530Z,8.33
2018-06-15T16:59:48.817Z,6.30
2018-06-15T17:01:53.140Z,2.60
2018-06-15T17:03:57.556Z,4.80
2018-06-15T17:06:02.250Z,8.83
2018-06-15T17:08:06.654Z,5.00
2018-06-15T17:10:11.020Z,8.00
2018-06-15T17:12:15.159Z,5.00
2018-06-15T17:14:19.571Z,6.60
2018-06-15T17:16:23.981Z,4.70
2018-06-15T17:18:28.374Z,7.40
2018-06-15T17:20:33.669Z,8.03
2018-06-15T17:22:38.378Z,8.83
2018-06-15T17:24:42.534Z,8.37
2018-06-15T17:26:46.619Z,7.33
2018-06-15T17:28:50.902Z,6.33
2018-06-15T17:30:55.158Z,10.57
2018-06-15T17:32:59.430Z,13.43
2018-06-15T17:35:03.945Z,7.30
2018-06-15T17:37:08.186Z,4.67
2018-06-15T17:39:13.201Z,8.73
2018-06-15T17:41:17.563Z,9.20
2018-06-15T17:43:21.886Z,11.43
2018-06-15T17:45:26.174Z,7.77
2018-06-15T17:47:30.422Z,6.20
2018-06-15T17:49:34.765Z,9.13
2018-06-15T17:51:38.941Z,13.30
2018-06-15T17:53:43.127Z,8.03
2018-06-15T17:55:47.402Z,8.47
2018-06-15T17:57:51.728Z,7.57
2018-06-15T17:59:56.152Z,9.87
2018-06-15T18:02:02.045Z,8.77
2018-06-15T18:04:06.868Z,7.07
2018-06-15T18:06:11.236Z,5.50
2018-06-15T18:08:15.684Z,7.43
2018-06-15T18:10:19.999Z,9.00
2018-06-15T18:12:24.354Z,13.23
2018-06-15T18:14:28.638Z,7.00
2018-06-15T18:16:33.051Z,7.70
2018-06-15T18:18:37.313Z,4.23
2018-06-15T18:20:41.721Z,8.30
2018-06-15T18:22:46.155Z,8.97
2018-06-15T18:24:50.159Z,7.30
2018-06-15T18:26:54.367Z,10.63
2018-06-15T18:28:58.413Z,5.20
2018-06-15T18:31:02.749Z,13.80
2018-06-15T18:33:07.009Z,7.30
2018-06-15T18:35:11.350Z,10.03
2018-06-15T18:37:15.674Z,13.67
2018-06-15T18:39:19.962Z,10.77
2018-06-15T18:41:24.491Z,5.57
2018-06-15T18:43:28.733Z,6.43
2018-06-15T18:45:33.336Z,12.40
2018-06-15T18:47:37.796Z,24.57
2018-06-15T18:49:42.040Z,14.13
2018-06-15T18:51:46.422Z,7.23
2018-06-15T18:53:50.850Z,6.97
2018-06-15T18:55:55.362Z,5.20
2018-06-15T18:57:59.953Z,5.90
2018-06-15T19:00:04.607Z,7.07
2018-06-15T19:02:08.902Z,7.77
2018-06-15T19:04:13.528Z,12.00
2018-06-15T19:06:18.023Z,6.40
2018-06-15T19:08:22.680Z,5.83
2018-06-15T19:10:27.069Z,13.83
2018-06-15T19:12:31.442Z,6.63
2018-06-15T19:14:35.735Z,12.40
2018-06-15T19:16:40.457Z,7.70
2018-06-15T19:18:44.923Z,4.53
2018-06-15T19:20:49.213Z,6.33
2018-06-15T19:22:53.757Z,11.73
2018-06-15T19:24:58.317Z,4.27
2018-06-15T19:27:02.534Z,7.50
2018-06-15T19:29:06.949Z,12.20
2018-06-15T19:31:11.408Z,6.63
2018-06-15T19:33:15.735Z,6.43
2018-06-15T19:35:19.974Z,8.43
2018-06-15T19:37:24.242Z,8.23
2018-06-15T19:39:28.524Z,8.53
2018-06-15T19:41:32.771Z,5.50
2018-06-15T19:43:37.190Z,6.37
2018-06-15T19:45:41.452Z,6.73
2018-06-15T19:47:45.682Z,3.77
2018-06-15T19:49:49.967Z,6.90
2018-06-15T19:51:54.234Z,8.63
2018-06-15T19:53:59.419Z,3.90
2018-06-15T19:56:04.518Z,6.37
2018-06-15T19:58:08.746Z,8.40
2018-06-15T20:00:13.011Z,6.07
2018-06-15T20:02:17.630Z,7.43
2018-06-15T20:04:21.883Z,6.90
2018-06-15T20:06:26.190Z,6.90
2018-06-15T20:08:30.578Z,8.17
2018-06-15T20:10:35.230Z,7.83
2018-06-15T20:12:39.747Z,7.77
2018-06-15T20:14:44.009Z,10.03
2018-06-15T20:16:48.331Z,14.80
2018-06-15T20:18:52.504Z,11.60
2018-06-15T20:20:56.519Z,4.70
2018-06-15T20:23:00.778Z,7.57
2018-06-15T20:25:05.479Z,10.80
2018-06-15T20:27:10.162Z,10.23
2018-06-15T20:29:14.421Z,8.40
2018-06-15T20:31:18.735Z,5.13
2018-06-15T20:33:23.014Z,6.93
2018-06-15T20:35:27.385Z,5.60
2018-06-15T20:37:31.821Z,5.33
2018-06-15T20:39:36.134Z,8.30
2018-06-15T20:41:40.428Z,5.27
2018-06-15T20:43:44.825Z,5.37
2018-06-15T20:45:49.104Z,9.67
2018-06-15T20:47:53.525Z,14.90
2018-06-15T20:49:57.587Z,12.13
2018-06-15T20:52:01.838Z,7.30
2018-06-15T20:54:06.123Z,12.57
2018-06-15T20:56:10.802Z,11.93
2018-06-15T20:58:15.500Z,5.60
2018-06-15T21:00:19.804Z,3.83
2018-06-15T21:02:24.378Z,5.67
2018-06-15T21:04:28.731Z,7.00
2018-06-15T21:06:33.030Z,5.90
2018-06-15T21:08:37.287Z,8.37
2018-06-15T21:10:41.643Z,12.10
2018-06-15T21:12:46.065Z,11.40
2018-06-15T21:14:50.352Z,13.03
2018-06-15T21:16:54.634Z,6.60
2018-06-15T21:18:58.927Z,11.70
2018-06-15T21:21:02.935Z,8.33
2018-06-15T21:23:07.215Z,4.73
2018-06-15T21:25:11.794Z,5.10
2018-06-15T21:27:16.095Z,6.90
2018-06-15T21:29:20.391Z,12.40
2018-06-15T21:31:24.670Z,4.87
2018-06-15T21:33:29.824Z,5.33
2018-06-15T21:35:34.186Z,7.03
2018-06-15T21:37:38.711Z,5.37
2018-06-15T21:39:42.969Z,7.20
2018-06-15T21:41:47.302Z,6.63
2018-06-15T21:43:51.599Z,8.10
2018-06-15T21:45:55.888Z,6.30
2018-06-15T21:48:00.411Z,5.70
2018-06-15T21:50:04.507Z,5.30
2018-06-15T21:52:08.633Z,11.23
2018-06-15T21:54:13.343Z,6.40
2018-06-15T21:56:18.437Z,6.00
2018-06-15T21:58:22.653Z,5.30
2018-06-15T22:00:27.327Z,8.90
2018-06-15T22:02:31.379Z,6.67
2018-06-15T22:04:35.415Z,9.80
2018-06-15T22:06:39.554Z,6.23
2018-06-15T22:08:43.891Z,5.03
2018-06-15T22:10:48.231Z,6.50
2018-06-15T22:12:52.534Z,3.20
2018-06-15T22:14:56.834Z,8.00
2018-06-15T22:17:01.280Z,4.20
2018-06-15T22:19:05.602Z,10.27
2018-06-15T22:21:09.873Z,7.37
2018-06-15T22:23:14.190Z,4.40
2018-06-15T22:25:18.472Z,4.80
2018-06-15T22:27:23.279Z,5.20
2018-06-15T22:29:27.357Z,8.73
2018-06-15T22:31:31.599Z,7.27
2018-06-15T22:33:35.834Z,4.00
2018-06-15T22:35:40.482Z,5.13
2018-06-15T22:37:44.434Z,12.57
2018-06-15T22:39:48.650Z,3.47
2018-06-15T22:41:52.769Z,6.93
2018-06-15T22:43:57.076Z,4.60
2018-06-15T22:46:01.650Z,4.60
2018-06-15T22:48:06.275Z,8.33
2018-06-15T22:50:10.564Z,4.93
2018-06-15T22:52:14.898Z,4.37
2018-06-15T22:54:19.045Z,7.90
2018-06-15T22:56:23.330Z,5.63
2018-06-15T22:58:27.677Z,14.10
2018-06-15T23:00:31.704Z,5.23
2018-06-15T23:02:36.076Z,5.57
2018-06-15T23:04:40.134Z,5.60
2018-06-15T23:06:44.386Z,4.90
2018-06-15T23:08:48.783Z,12.43
2018-06-15T23:10:52.782Z,7.80
2018-06-15T23:12:57.119Z,6.43
2018-06-15T23:15:01.548Z,12.33
2018-06-15T23:17:05.891Z,6.53
2018-06-15T23:19:10.155Z,5.67
2018-06-15T23:21:14.582Z,5.97
2018-06-15T23:23:18.886Z,9.80
2018-06-15T23:25:23.136Z,14.83
2018-06-15T23:27:27.130Z,11.60
2018-06-15T23:29:31.419Z,6.93
2018-06-15T23:31:35.822Z,8.47
2018-06-15T23:33:40.095Z,3.13
2018-06-15T23:35:44.375Z,9.87
2018-06-15T23:37:48.660Z,3.30
2018-06-15T23:39:52.895Z,4.00
2018-06-15T23:41:57.160Z,4.47
2018-06-15T23:44:01.415Z,5.43
2018-06-15T23:46:05.715Z,6.10
2018-06-15T23:48:09.956Z,5.70
2018-06-15T23:50:14.230Z,4.20
2018-06-15T23:52:18.600Z,8.13
2018-06-15T23:54:22.884Z,13.10
2018-06-15T23:56:27.138Z,7.37
2018-06-15T23:58:31.422Z,5.77
